createdAt,value
2022-08-17T00:00:42.844Z,21.10
2022-08-17T00:03:23.480Z,21.00
2022-08-17T00:05:58.688Z,21.10
2022-08-17T00:08:32.775Z,21.00
2022-08-17T00:11:01.622Z,21.00
2022-08-17T00:13:36.730Z,20.90
2022-08-17T00:16:51.916Z,20.80
2022-08-17T00:19:17.163Z,20.50
2022-08-17T00:22:30.943Z,20.60
2022-08-17T00:24:35.408Z,20.70
2022-08-17T00:27:03.671Z,20.70
2022-08-17T00:29:31.207Z,20.60
2022-08-17T00:31:58.873Z,20.60
2022-08-17T00:34:27.941Z,20.60
2022-08-17T00:36:55.705Z,20.60
2022-08-17T00:39:23.331Z,20.20
2022-08-17T00:41:50.986Z,20.10
2022-08-17T00:44:18.910Z,20.30
2022-08-17T00:46:48.192Z,20.20
2022-08-17T00:49:19.657Z,19.80
2022-08-17T00:52:00.101Z,20.30
2022-08-17T00:54:42.017Z,20.40
2022-08-17T00:57:18.688Z,20.60
2022-08-17T01:00:03.045Z,20.40
2022-08-17T01:02:40.445Z,20.20
2022-08-17T01:05:18.423Z,20.20
2022-08-17T01:07:51.094Z,20.10
2022-08-17T01:10:59.306Z,20.10
2022-08-17T01:13:15.047Z,20.20
2022-08-17T01:15:47.515Z,20.10
2022-08-17T01:18:15.184Z,20.20
2022-08-17T01:20:49.639Z,20.10
2022-08-17T01:23:20.727Z,20.10
2022-08-17T01:26:01.899Z,20.10
2022-08-17T01:28:33.379Z,19.90
2022-08-17T01:31:19.034Z,20.00
2022-08-17T01:33:46.111Z,20.00
2022-08-17T01:36:13.591Z,20.00
2022-08-17T01:38:40.748Z,19.90
2022-08-17T01:41:12.592Z,19.90
2022-08-17T01:43:52.077Z,19.90
2022-08-17T01:46:23.397Z,19.70
2022-08-17T01:48:51.659Z,19.80
2022-08-17T01:51:19.980Z,19.70
2022-08-17T01:53:54.140Z,19.70
2022-08-17T01:56:24.553Z,19.70
2022-08-17T01:58:52.637Z,19.70
2022-08-17T02:01:26.643Z,19.70
2022-08-17T02:04:00.462Z,19.80
2022-08-17T02:06:31.529Z,19.80
2022-08-17T02:09:16.830Z,19.80
2022-08-17T02:11:45.410Z,19.60
2022-08-17T02:14:13.864Z,19.60
2022-08-17T02:16:42.348Z,19.70
2022-08-17T02:19:13.496Z,19.60
2022-08-17T02:21:43.162Z,19.70
2022-08-17T02:24:15.097Z,19.70
2022-08-17T02:26:42.425Z,19.70
2022-08-17T02:29:09.511Z,19.70
2022-08-17T02:31:36.613Z,19.60
2022-08-17T02:34:05.175Z,19.60
2022-08-17T02:36:34.211Z,19.40
2022-08-17T02:39:06.141Z,19.40
2022-08-17T02:41:33.794Z,19.40
2022-08-17T02:44:01.241Z,19.40
2022-08-17T02:46:28.649Z,19.30
2022-08-17T02:48:55.848Z,19.40
2022-08-17T02:51:23.123Z,19.30
2022-08-17T02:53:50.618Z,19.30
2022-08-17T02:56:17.923Z,19.30
2022-08-17T02:58:45.216Z,19.20
2022-08-17T03:01:13.165Z,19.10
2022-08-17T03:03:41.079Z,19.20
2022-08-17T03:06:08.642Z,19.20
2022-08-17T03:08:37.534Z,19.20
2022-08-17T03:11:04.955Z,19.10
2022-08-17T03:13:32.175Z,18.90
2022-08-17T03:15:59.628Z,19.00
2022-08-17T03:18:28.119Z,19.00
2022-08-17T03:20:57.578Z,19.00
2022-08-17T03:23:26.096Z,19.10
2022-08-17T03:25:55.126Z,19.00
2022-08-17T03:28:23.646Z,19.00
2022-08-17T03:30:51.464Z,19.00
2022-08-17T03:33:19.995Z,18.90
2022-08-17T03:35:47.184Z,18.90
2022-08-17T03:38:15.012Z,18.80
2022-08-17T03:40:56.237Z,18.80
2022-08-17T03:43:31.143Z,18.80
2022-08-17T03:46:27.984Z,18.70
2022-08-17T03:49:23.244Z,18.70
2022-08-17T03:52:08.708Z,18.70
2022-08-17T03:54:54.555Z,18.70
2022-08-17T03:57:21.701Z,18.60
2022-08-17T03:59:48.953Z,18.70
2022-08-17T04:02:28.764Z,18.60
2022-08-17T04:04:56.371Z,18.60
2022-08-17T04:07:27.665Z,18.60
2022-08-17T04:09:55.285Z,18.60
2022-08-17T04:12:24.434Z,18.60
2022-08-17T04:14:54.649Z,18.50
2022-08-17T04:17:28.046Z,18.40
2022-08-17T04:19:55.729Z,18.30
2022-08-17T04:22:30.291Z,18.30
2022-08-17T04:24:59.227Z,18.40
2022-08-17T04:27:27.254Z,18.40
2022-08-17T04:29:55.987Z,18.50
2022-08-17T04:33:05.446Z,18.50
2022-08-17T04:35:10.605Z,18.50
2022-08-17T04:37:37.944Z,18.50
2022-08-17T04:40:27.312Z,18.40
2022-08-17T04:43:14.579Z,18.50
2022-08-17T04:45:55.945Z,18.40
2022-08-17T04:48:36.216Z,18.50
2022-08-17T04:51:20.896Z,18.40
2022-08-17T04:53:54.018Z,18.40
2022-08-17T04:56:23.654Z,18.50
2022-08-17T04:58:52.885Z,18.60
2022-08-17T05:01:23.653Z,18.50
2022-08-17T05:03:56.897Z,18.60
2022-08-17T05:06:24.263Z,18.60
2022-08-17T05:08:51.521Z,18.50
2022-08-17T05:11:18.726Z,18.50
2022-08-17T05:13:46.164Z,18.60
2022-08-17T05:16:13.323Z,18.60
2022-08-17T05:18:40.822Z,18.50
2022-08-17T05:21:08.476Z,18.40
2022-08-17T05:23:42.864Z,18.50
2022-08-17T05:26:25.444Z,18.60
2022-08-17T05:29:00.348Z,18.40
2022-08-17T05:31:30.200Z,18.30
2022-08-17T05:33:57.718Z,18.20
2022-08-17T05:36:43.542Z,18.40
2022-08-17T05:39:17.068Z,18.50
2022-08-17T05:41:46.813Z,18.70
2022-08-17T05:44:14.077Z,18.80
2022-08-17T05:46:47.601Z,18.90
2022-08-17T05:49:18.006Z,19.00
2022-08-17T05:52:06.748Z,18.70
2022-08-17T05:54:43.298Z,18.80
2022-08-17T05:57:47.655Z,19.00
2022-08-17T06:00:31.741Z,19.10
2022-08-17T06:03:16.121Z,19.10
2022-08-17T06:05:52.536Z,19.20
2022-08-17T06:08:29.102Z,19.30
2022-08-17T06:11:03.018Z,19.40
2022-08-17T06:13:45.158Z,19.40
2022-08-17T06:16:33.794Z,19.30
2022-08-17T06:19:13.334Z,19.50
2022-08-17T06:21:44.101Z,19.60
2022-08-17T06:24:34.381Z,19.70
2022-08-17T06:27:33.279Z,19.60
2022-08-17T06:30:25.884Z,19.60
2022-08-17T06:32:57.369Z,19.70
2022-08-17T06:35:52.418Z,19.80
2022-08-17T06:39:14.017Z,19.90
2022-08-17T06:41:54.418Z,20.00
2022-08-17T06:44:43.709Z,20.00
2022-08-17T06:47:42.565Z,20.00
2022-08-17T06:50:21.794Z,20.00
2022-08-17T06:53:07.743Z,20.10
2022-08-17T06:55:58.667Z,20.10
2022-08-17T06:58:32.422Z,20.30
2022-08-17T07:01:13.501Z,20.30
2022-08-17T07:03:53.626Z,20.10
2022-08-17T07:06:45.004Z,20.10
2022-08-17T07:09:38.812Z,20.20
2022-08-17T07:12:15.986Z,20.40
2022-08-17T07:14:53.370Z,20.40
2022-08-17T07:17:46.620Z,20.40
2022-08-17T07:20:20.724Z,20.50
2022-08-17T07:23:04.690Z,20.60
2022-08-17T07:25:32.392Z,20.60
2022-08-17T07:28:02.463Z,20.70
2022-08-17T07:30:47.394Z,20.90
2022-08-17T07:33:27.942Z,20.90
2022-08-17T07:35:58.222Z,21.10
2022-08-17T07:38:31.859Z,21.20
2022-08-17T07:41:05.433Z,21.30
2022-08-17T07:43:41.572Z,21.40
2022-08-17T07:46:30.222Z,21.60
2022-08-17T07:49:09.033Z,21.80
2022-08-17T07:51:44.010Z,21.90
2022-08-17T07:54:22.591Z,22.00
2022-08-17T07:56:52.599Z,22.10
2022-08-17T07:59:34.484Z,22.30
2022-08-17T08:02:35.659Z,22.50
2022-08-17T08:05:48.837Z,22.50
2022-08-17T08:08:22.524Z,22.70
2022-08-17T08:11:08.803Z,23.00
2022-08-17T08:13:43.923Z,23.10
2022-08-17T08:16:31.658Z,23.30
2022-08-17T08:19:01.813Z,23.40
2022-08-17T08:21:35.772Z,23.50
2022-08-17T08:24:41.671Z,23.70
2022-08-17T08:27:29.923Z,23.90
2022-08-17T08:30:15.849Z,23.80
2022-08-17T08:33:02.354Z,23.90
2022-08-17T08:35:35.129Z,24.30
2022-08-17T08:38:21.987Z,24.30
2022-08-17T08:41:13.871Z,24.50
2022-08-17T08:43:55.887Z,24.70
2022-08-17T08:46:53.499Z,24.80
2022-08-17T08:50:02.746Z,24.70
2022-08-17T08:52:52.463Z,24.70
2022-08-17T08:55:22.447Z,24.90
2022-08-17T08:57:55.771Z,25.20
2022-08-17T09:00:27.107Z,25.40
2022-08-17T09:03:51.680Z,25.60
2022-08-17T09:06:51.347Z,25.60
2022-08-17T09:09:42.989Z,25.60
2022-08-17T09:12:36.865Z,25.70
2022-08-17T09:15:27.790Z,25.70
2022-08-17T09:19:00.906Z,26.10
2022-08-17T09:21:19.091Z,26.30
2022-08-17T09:24:00.000Z,26.60
2022-08-17T09:26:59.471Z,26.70
2022-08-17T09:29:35.298Z,26.70
2022-08-17T09:32:41.685Z,26.70
2022-08-17T09:35:25.165Z,27.10
2022-08-17T09:38:21.410Z,27.60
2022-08-17T09:40:57.264Z,27.60
2022-08-17T09:43:39.522Z,27.90
2022-08-17T09:46:48.896Z,27.70
2022-08-17T09:49:30.963Z,27.90
2022-08-17T09:52:11.631Z,27.90
2022-08-17T09:54:42.644Z,28.40
2022-08-17T09:57:29.952Z,28.20
2022-08-17T10:00:00.843Z,28.30
2022-08-17T10:02:58.153Z,28.40
2022-08-17T10:05:41.503Z,28.40
2022-08-17T10:08:18.104Z,29.20
2022-08-17T10:11:08.682Z,29.60
2022-08-17T10:14:24.083Z,29.70
2022-08-17T10:17:04.746Z,29.50
2022-08-17T10:19:53.165Z,29.90
2022-08-17T10:23:04.604Z,30.10
2022-08-17T10:25:55.437Z,30.60
2022-08-17T10:28:29.739Z,30.10
2022-08-17T10:31:30.784Z,30.20
2022-08-17T10:34:19.061Z,29.60
2022-08-17T10:37:10.419Z,29.50
2022-08-17T10:39:52.001Z,29.80
2022-08-17T10:42:45.890Z,30.80
2022-08-17T10:45:18.711Z,30.40
2022-08-17T10:48:36.999Z,30.70
2022-08-17T10:51:09.125Z,31.20
2022-08-17T10:53:36.206Z,31.00
2022-08-17T10:56:14.684Z,30.80
2022-08-17T10:58:55.998Z,30.70
2022-08-17T11:01:29.543Z,31.00
2022-08-17T11:04:03.684Z,31.50
2022-08-17T11:06:51.560Z,31.90
2022-08-17T11:09:55.725Z,31.90
2022-08-17T11:13:09.127Z,32.00
2022-08-17T11:16:09.014Z,31.50
2022-08-17T11:18:54.105Z,31.60
2022-08-17T11:21:45.197Z,31.70
2022-08-17T11:24:12.315Z,31.40
2022-08-17T11:26:47.691Z,31.30
2022-08-17T11:29:29.358Z,31.70
2022-08-17T11:32:13.825Z,31.60
2022-08-17T11:34:44.671Z,31.70
2022-08-17T11:37:26.454Z,31.60
2022-08-17T11:40:12.997Z,31.60
2022-08-17T11:43:05.255Z,32.20
2022-08-17T11:45:47.366Z,32.80
2022-08-17T11:48:54.654Z,32.10
2022-08-17T11:51:33.923Z,32.40
2022-08-17T11:56:59.261Z,31.30
2022-08-17T11:59:42.248Z,31.50
2022-08-17T12:02:38.850Z,32.70
2022-08-17T12:05:12.517Z,32.70
2022-08-17T12:08:04.242Z,33.00
2022-08-17T12:10:34.447Z,33.20
2022-08-17T12:13:10.571Z,32.60
2022-08-17T12:15:49.417Z,32.90
2022-08-17T12:18:20.888Z,33.10
2022-08-17T12:21:01.196Z,33.00
2022-08-17T12:23:41.971Z,32.20
2022-08-17T12:26:25.213Z,32.20
2022-08-17T12:29:01.152Z,32.40
2022-08-17T12:31:34.663Z,31.90
2022-08-17T12:34:05.791Z,31.90
2022-08-17T12:36:33.889Z,32.30
2022-08-17T12:39:13.860Z,32.60
2022-08-17T12:41:50.247Z,32.70
2022-08-17T12:44:23.417Z,32.30
2022-08-17T12:47:01.824Z,32.40
2022-08-17T12:49:35.706Z,32.80
2022-08-17T12:52:09.273Z,33.60
2022-08-17T12:54:59.460Z,33.40
2022-08-17T12:57:38.671Z,33.80
2022-08-17T13:00:17.974Z,33.40
2022-08-17T13:03:03.444Z,33.60
2022-08-17T13:05:36.228Z,33.20
2022-08-17T13:08:16.961Z,33.60
2022-08-17T13:10:54.126Z,34.50
2022-08-17T13:13:26.417Z,34.70
2022-08-17T13:16:00.338Z,33.90
2022-08-17T13:18:36.370Z,34.50
2022-08-17T13:21:03.856Z,34.30
2022-08-17T13:23:32.376Z,33.60
2022-08-17T13:26:15.993Z,33.10
2022-08-17T13:28:51.803Z,34.00
2022-08-17T13:31:30.497Z,33.50
2022-08-17T13:34:16.286Z,32.70
2022-08-17T13:36:47.888Z,32.60
2022-08-17T13:39:19.477Z,32.40
2022-08-17T13:41:48.038Z,32.30
2022-08-17T13:44:37.189Z,32.20
2022-08-17T13:47:15.105Z,31.90
2022-08-17T13:49:48.750Z,32.20
2022-08-17T13:52:32.008Z,32.30
2022-08-17T13:55:04.968Z,32.60
2022-08-17T13:57:32.375Z,33.00
2022-08-17T14:00:17.711Z,33.90
2022-08-17T14:02:44.860Z,33.90
2022-08-17T14:05:12.044Z,33.80
2022-08-17T14:07:40.753Z,33.60
2022-08-17T14:10:17.474Z,33.20
2022-08-17T14:12:45.771Z,33.40
2022-08-17T14:15:16.261Z,33.10
2022-08-17T14:17:43.864Z,32.70
2022-08-17T14:20:13.112Z,32.10
2022-08-17T14:22:45.222Z,32.10
2022-08-17T14:25:15.624Z,32.20
2022-08-17T14:27:52.751Z,31.80
2022-08-17T14:30:28.976Z,31.50
2022-08-17T14:33:00.651Z,32.30
2022-08-17T14:35:29.238Z,33.20
2022-08-17T14:37:57.195Z,33.70
2022-08-17T14:40:25.555Z,33.70
2022-08-17T14:42:55.295Z,34.00
2022-08-17T14:45:27.030Z,33.80
2022-08-17T14:48:00.208Z,33.60
2022-08-17T14:50:27.358Z,33.50
2022-08-17T14:52:56.330Z,32.60
2022-08-17T14:55:25.558Z,32.30
2022-08-17T14:57:52.812Z,32.20
2022-08-17T15:00:20.240Z,32.10
2022-08-17T15:02:54.332Z,31.90
2022-08-17T15:05:24.702Z,31.70
2022-08-17T15:07:53.535Z,31.70
2022-08-17T15:10:25.601Z,31.40
2022-08-17T15:12:53.090Z,31.40
2022-08-17T15:15:21.127Z,31.40
2022-08-17T15:17:48.346Z,31.40
2022-08-17T15:20:19.330Z,31.50
2022-08-17T15:22:55.564Z,31.50
2022-08-17T15:25:26.669Z,32.00
2022-08-17T15:27:55.593Z,32.40
2022-08-17T15:30:23.520Z,32.90
2022-08-17T15:32:54.962Z,32.70
2022-08-17T15:35:28.213Z,32.70
2022-08-17T15:38:11.533Z,32.70
2022-08-17T15:40:43.930Z,32.60
2022-08-17T15:43:21.007Z,32.60
2022-08-17T15:46:02.407Z,32.90
2022-08-17T15:48:43.201Z,32.90
2022-08-17T15:51:15.619Z,32.60
2022-08-17T15:53:48.019Z,32.20
2022-08-17T15:56:16.444Z,32.20
2022-08-17T15:58:45.208Z,31.90
2022-08-17T16:01:18.715Z,31.50
2022-08-17T16:04:06.837Z,31.70
2022-08-17T16:06:34.868Z,31.50
2022-08-17T16:09:02.110Z,31.30
2022-08-17T16:11:29.362Z,31.30
2022-08-17T16:13:56.576Z,31.20
2022-08-17T16:16:24.308Z,31.10
2022-08-17T16:18:54.523Z,31.00
2022-08-17T16:21:26.242Z,30.90
2022-08-17T16:24:06.883Z,30.90
2022-08-17T16:26:41.082Z,30.80
2022-08-17T16:29:09.089Z,30.70
2022-08-17T16:31:37.668Z,30.60
2022-08-17T16:34:17.205Z,30.60
2022-08-17T16:36:55.127Z,30.50
2022-08-17T16:39:29.449Z,30.60
2022-08-17T16:41:57.822Z,30.60
2022-08-17T16:44:31.852Z,30.50
2022-08-17T16:47:01.201Z,30.60
2022-08-17T16:49:36.586Z,30.40
2022-08-17T16:52:07.592Z,30.30
2022-08-17T16:54:36.984Z,30.30
2022-08-17T16:57:05.387Z,30.40
2022-08-17T16:59:41.854Z,30.30
2022-08-17T17:02:14.861Z,30.30
2022-08-17T17:05:14.160Z,30.30
2022-08-17T17:07:53.796Z,30.40
2022-08-17T17:10:24.558Z,30.30
2022-08-17T17:13:03.059Z,30.10
2022-08-17T17:16:18.428Z,30.00
2022-08-17T17:19:00.511Z,29.90
2022-08-17T17:21:39.177Z,29.90
2022-08-17T17:24:14.121Z,29.90
2022-08-17T17:26:44.465Z,30.00
2022-08-17T17:29:22.834Z,29.90
2022-08-17T17:32:32.483Z,29.80
2022-08-17T17:35:07.053Z,29.90
2022-08-17T17:37:35.676Z,29.60
2022-08-17T17:40:31.900Z,29.80
2022-08-17T17:43:14.534Z,29.70
2022-08-17T17:46:07.693Z,29.80
2022-08-17T17:48:48.246Z,29.70
2022-08-17T17:51:45.631Z,29.50
2022-08-17T17:54:52.931Z,29.60
2022-08-17T17:57:26.670Z,29.70
2022-08-17T18:00:23.728Z,29.70
2022-08-17T18:03:08.584Z,29.70
2022-08-17T18:05:51.957Z,29.60
2022-08-17T18:08:32.421Z,29.60
2022-08-17T18:11:24.352Z,29.60
2022-08-17T18:14:07.651Z,29.60
2022-08-17T18:16:35.235Z,29.30
2022-08-17T18:19:02.458Z,29.00
2022-08-17T18:21:37.984Z,28.70
2022-08-17T18:24:07.749Z,28.80
2022-08-17T18:26:35.419Z,28.90
2022-08-17T18:29:21.123Z,29.00
2022-08-17T18:31:48.575Z,29.10
2022-08-17T18:34:45.837Z,29.00
2022-08-17T18:37:13.293Z,28.90
2022-08-17T18:39:44.244Z,28.90
2022-08-17T18:42:26.356Z,28.50
2022-08-17T18:44:55.510Z,28.20
2022-08-17T18:47:24.629Z,28.10
2022-08-17T18:49:57.818Z,28.00
2022-08-17T18:52:33.141Z,27.80
2022-08-17T18:55:29.347Z,28.00
2022-08-17T18:58:13.052Z,28.30
2022-08-17T19:00:46.216Z,28.40
2022-08-17T19:03:16.250Z,28.40
2022-08-17T19:05:47.373Z,28.20
2022-08-17T19:08:29.308Z,28.10
2022-08-17T19:10:56.402Z,28.10
2022-08-17T19:13:35.478Z,27.90
2022-08-17T19:16:14.708Z,27.80
2022-08-17T19:18:59.178Z,27.30
2022-08-17T19:21:41.632Z,26.90
2022-08-17T19:24:19.904Z,26.60
2022-08-17T19:26:56.555Z,27.00
2022-08-17T19:29:40.419Z,27.40
2022-08-17T19:32:09.865Z,27.50
2022-08-17T19:34:39.424Z,27.60
2022-08-17T19:37:15.732Z,27.40
2022-08-17T19:40:09.567Z,27.40
2022-08-17T19:42:39.363Z,27.40
2022-08-17T19:45:09.346Z,27.40
2022-08-17T19:48:02.586Z,27.30
2022-08-17T19:51:11.772Z,27.10
2022-08-17T19:54:08.043Z,27.00
2022-08-17T19:56:55.619Z,27.00
2022-08-17T19:59:50.488Z,26.70
2022-08-17T20:02:32.685Z,26.90
2022-08-17T20:05:05.754Z,26.80
2022-08-17T20:08:01.433Z,26.90
2022-08-17T20:10:40.715Z,26.80
2022-08-17T20:13:35.447Z,26.90
2022-08-17T20:16:04.410Z,26.90
2022-08-17T20:18:38.706Z,26.50
2022-08-17T20:21:22.405Z,26.70
2022-08-17T20:24:20.736Z,26.80
2022-08-17T20:27:14.299Z,26.50
2022-08-17T20:30:08.125Z,26.40
2022-08-17T20:32:56.244Z,26.60
2022-08-17T20:35:28.846Z,26.70
2022-08-17T20:38:05.703Z,26.70
2022-08-17T20:40:40.358Z,26.60
2022-08-17T20:43:35.341Z,26.60
2022-08-17T20:46:11.723Z,26.60
2022-08-17T20:48:45.664Z,26.60
2022-08-17T20:51:27.297Z,26.50
2022-08-17T20:53:54.621Z,26.40
2022-08-17T20:56:43.590Z,26.40
2022-08-17T20:59:26.059Z,26.40
2022-08-17T21:02:18.382Z,26.40
2022-08-17T21:04:54.992Z,26.50
2022-08-17T21:07:43.202Z,26.40
2022-08-17T21:10:25.904Z,26.40
2022-08-17T21:12:56.269Z,26.30
2022-08-17T21:15:31.093Z,26.20
2022-08-17T21:18:38.969Z,25.80
2022-08-17T21:21:24.221Z,25.50
2022-08-17T21:24:05.602Z,25.70
2022-08-17T21:26:50.756Z,25.90
2022-08-17T21:29:31.397Z,26.00
2022-08-17T21:32:03.336Z,25.90
2022-08-17T21:34:43.621Z,26.00
2022-08-17T21:37:34.951Z,25.90
2022-08-17T21:40:12.431Z,25.90
2022-08-17T21:42:49.541Z,25.90
2022-08-17T21:45:22.672Z,25.80
2022-08-17T21:48:07.092Z,25.70
2022-08-17T21:50:35.769Z,25.60
2022-08-17T21:53:05.108Z,25.30
2022-08-17T21:55:34.203Z,25.10
2022-08-17T21:58:19.322Z,25.20
2022-08-17T22:00:46.489Z,25.40
2022-08-17T22:03:26.255Z,25.30
2022-08-17T22:05:53.352Z,25.50
2022-08-17T22:08:25.281Z,25.50
2022-08-17T22:11:01.799Z,25.60
2022-08-17T22:13:29.588Z,25.50
2022-08-17T22:16:15.481Z,25.50
2022-08-17T22:18:58.987Z,25.50
2022-08-17T22:21:27.058Z,25.30
2022-08-17T22:24:06.270Z,25.50
2022-08-17T22:27:01.219Z,25.30
2022-08-17T22:29:58.698Z,25.10
2022-08-17T22:32:37.723Z,25.10
2022-08-17T22:35:39.263Z,25.20
2022-08-17T22:38:21.342Z,25.20
2022-08-17T22:40:51.908Z,25.20
2022-08-17T22:43:26.288Z,25.10
2022-08-17T22:45:57.591Z,25.00
2022-08-17T22:48:28.293Z,25.00
2022-08-17T22:51:13.971Z,25.10
2022-08-17T22:54:09.265Z,25.10
2022-08-17T22:56:55.708Z,25.10
2022-08-17T22:59:46.801Z,25.20
2022-08-17T23:02:19.701Z,24.90
2022-08-17T23:04:57.578Z,24.70
2022-08-17T23:07:24.724Z,24.90
2022-08-17T23:09:52.696Z,25.10
2022-08-17T23:12:26.345Z,25.10
2022-08-17T23:14:58.527Z,25.00
2022-08-17T23:17:25.590Z,25.00
2022-08-17T23:19:53.170Z,25.00
2022-08-17T23:22:20.292Z,25.00
2022-08-17T23:24:51.498Z,24.80
2022-08-17T23:27:20.650Z,24.90
2022-08-17T23:29:48.784Z,24.80
2022-08-17T23:32:18.012Z,24.50
2022-08-17T23:34:47.820Z,24.30
2022-08-17T23:37:15.590Z,24.50
2022-08-17T23:39:45.148Z,24.60
2022-08-17T23:42:16.418Z,24.70
2022-08-17T23:44:44.007Z,24.60
2022-08-17T23:47:11.640Z,24.70
2022-08-17T23:49:40.379Z,24.70
2022-08-17T23:52:12.666Z,24.50
2022-08-17T23:54:46.657Z,24.60
2022-08-17T23:57:17.316Z,24.50
2022-08-17T23:59:44.720Z,24.50
